Time;durP1;ratioP1;P1;durP2;ratioP2;P2;SDS_P1;SDS_P2;PMS_P1;PMS_P2;Temp;Humidity;BMP_temperature;BMP_pressure;BME280_temperature;BME280_humidity;BME280_pressure;Samples;Min_cycle;Max_cycle;Signal;HPM_P1;HPM_P2
2021/11/22 00:01:06;;;;;;;10.83;5.80;;;;;;;;;;6264588;28;20518;-81
2021/11/22 00:04:09;;;;;;;9.13;4.80;;;;;;;;;;6263298;28;20452;-81
2021/11/22 00:07:12;;;;;;;12.45;5.18;;;;;;;;;;6263755;28;20055;-81
2021/11/22 00:10:14;;;;;;;14.17;6.37;;;;;;;;;;6232640;28;20123;-80
2021/11/22 00:13:16;;;;;;;12.57;5.50;;;;;;;;;;6257158;28;20463;-81
2021/11/22 00:16:18;;;;;;;14.75;5.55;;;;;;;;;;6227821;28;20124;-81
2021/11/22 00:19:20;;;;;;;13.95;7.60;;;;;;;;;;6235377;28;20052;-81
2021/11/22 00:22:21;;;;;;;16.63;7.13;;;;;;;;;;6248830;28;20116;-80
2021/11/22 00:25:23;;;;;;;15.10;7.05;;;;;;;;;;6269712;28;20043;-81
2021/11/22 00:28:25;;;;;;;20.15;7.50;;;;;;;;;;6265428;28;20063;-81
2021/11/22 00:32:03;;;;;;;16.92;7.18;;;;;;;;;;6266444;28;20053;-81
2021/11/22 00:35:31;;;;;;;16.77;7.03;;;;;;;;;;6253326;28;20084;-81
2021/11/22 00:38:33;;;;;;;13.80;6.03;;;;;;;;;;6250863;28;20039;-81
2021/11/22 00:41:34;;;;;;;14.70;6.53;;;;;;;;;;6250770;28;20055;-80
2021/11/22 00:44:37;;;;;;;16.33;7.38;;;;;;;;;;6268462;28;20041;-81
2021/11/22 00:47:39;;;;;;;12.68;6.30;;;;;;;;;;6232585;28;20049;-79
2021/11/22 00:50:40;;;;;;;15.60;6.57;;;;;;;;;;6249196;28;20051;-81
2021/11/22 00:53:42;;;;;;;14.57;6.95;;;;;;;;;;6263890;28;20037;-80
2021/11/22 00:56:44;;;;;;;19.30;7.80;;;;;;;;;;6264928;28;20136;-81
2021/11/22 00:59:45;;;;;;;20.85;7.45;;;;;;;;;;6268538;28;20486;-81
2021/11/22 01:02:47;;;;;;;14.55;6.88;;;;;;;;;;6268695;28;20421;-81
2021/11/22 01:05:49;;;;;;;17.83;6.68;;;;;;;;;;6266367;28;20037;-80
2021/11/22 01:08:50;;;;;;;18.83;7.47;;;;;;;;;;6259935;28;20059;-81
2021/11/22 01:11:52;;;;;;;15.35;6.43;;;;;;;;;;6266043;28;20057;-79
2021/11/22 01:14:58;;;;;;;11.82;6.03;;;;;;;;;;6266980;28;20052;-81
2021/11/22 01:18:01;;;;;;;11.93;5.60;;;;;;;;;;6266457;28;20052;-81
2021/11/22 01:21:03;;;;;;;13.35;5.80;;;;;;;;;;6250961;28;20055;-79
2021/11/22 01:24:04;;;;;;;16.02;6.78;;;;;;;;;;6266606;28;20118;-80
2021/11/22 01:27:06;;;;;;;15.75;7.25;;;;;;;;;;6248514;28;20045;-81
2021/11/22 01:30:11;;;;;;;16.27;7.38;;;;;;;;;;6249933;28;20049;-81
2021/11/22 01:33:13;;;;;;;17.13;7.05;;;;;;;;;;6268296;28;20049;-81
2021/11/22 01:36:16;;;;;;;14.47;6.50;;;;;;;;;;6247193;28;20037;-81
2021/11/22 01:39:17;;;;;;;10.93;5.38;;;;;;;;;;6264831;28;20045;-81
2021/11/22 01:42:19;;;;;;;16.25;6.10;;;;;;;;;;6246844;28;20048;-81
2021/11/22 01:45:22;;;;;;;14.40;5.45;;;;;;;;;;6248849;28;20037;-81
2021/11/22 01:48:24;;;;;;;13.13;5.47;;;;;;;;;;6272146;28;20087;-81
2021/11/22 01:51:26;;;;;;;24.67;5.47;;;;;;;;;;6264903;28;20125;-81
2021/11/22 01:54:27;;;;;;;89.60;8.23;;;;;;;;;;6266833;28;20045;-80
2021/11/22 01:57:29;;;;;;;116.72;8.98;;;;;;;;;;6264052;28;20049;-79
2021/11/22 02:00:34;;;;;;;94.63;8.10;;;;;;;;;;6264582;28;20041;-81
2021/11/22 02:03:36;;;;;;;31.67;5.68;;;;;;;;;;6267849;28;20037;-81
2021/11/22 02:06:38;;;;;;;79.43;7.75;;;;;;;;;;6265306;28;20049;-80
2021/11/22 02:09:39;;;;;;;18.80;5.22;;;;;;;;;;6249434;28;20047;-81
2021/11/22 02:12:41;;;;;;;39.83;6.72;;;;;;;;;;6245774;28;20045;-81
2021/11/22 02:15:43;;;;;;;24.88;6.25;;;;;;;;;;6270036;28;20129;-81
2021/11/22 02:18:45;;;;;;;22.50;6.60;;;;;;;;;;6253953;28;20045;-81
2021/11/22 02:21:46;;;;;;;23.55;7.28;;;;;;;;;;6260965;28;20072;-80
2021/11/22 02:24:48;;;;;;;18.98;7.38;;;;;;;;;;6271342;28;20052;-80
2021/11/22 02:27:51;;;;;;;20.98;7.30;;;;;;;;;;6248065;28;20041;-81
2021/11/22 02:30:53;;;;;;;19.63;6.72;;;;;;;;;;6270987;28;20056;-80
2021/11/22 02:33:55;;;;;;;15.07;5.88;;;;;;;;;;6272014;28;20053;-80
2021/11/22 02:36:57;;;;;;;13.75;5.10;;;;;;;;;;6264429;28;20080;-81
2021/11/22 02:39:59;;;;;;;9.23;4.55;;;;;;;;;;6254671;28;20055;-81
2021/11/22 02:43:00;;;;;;;9.35;4.32;;;;;;;;;;6268790;28;20048;-81
2021/11/22 02:46:03;;;;;;;11.95;5.00;;;;;;;;;;6256137;28;20090;-79
2021/11/22 02:49:04;;;;;;;11.80;5.20;;;;;;;;;;6277977;28;20188;-80
2021/11/22 02:52:06;;;;;;;11.18;5.70;;;;;;;;;;6278791;28;20431;-79
2021/11/22 02:55:10;;;;;;;13.55;5.88;;;;;;;;;;6244793;28;20040;-81
2021/11/22 02:58:12;;;;;;;9.68;4.90;;;;;;;;;;6257943;28;20045;-81
2021/11/22 03:01:14;;;;;;;13.07;4.90;;;;;;;;;;6252899;28;20123;-81
2021/11/22 03:04:15;;;;;;;11.80;4.70;;;;;;;;;;6261007;28;20128;-81
2021/11/22 03:07:17;;;;;;;14.00;5.28;;;;;;;;;;6269008;28;20517;-80
2021/11/22 03:10:20;;;;;;;10.95;4.88;;;;;;;;;;6234715;28;20416;-80
2021/11/22 03:13:22;;;;;;;10.48;4.90;;;;;;;;;;6266762;28;20052;-81
2021/11/22 03:16:24;;;;;;;12.43;4.97;;;;;;;;;;6237364;28;20051;-81
2021/11/22 03:19:26;;;;;;;11.05;4.57;;;;;;;;;;6271158;28;20041;-80
2021/11/22 03:22:28;;;;;;;7.30;4.73;;;;;;;;;;6260676;28;20041;-81
2021/11/22 03:25:31;;;;;;;10.38;5.32;;;;;;;;;;6251397;28;20053;-79
2021/11/22 03:28:33;;;;;;;11.93;4.72;;;;;;;;;;6269308;28;20391;-81
2021/11/22 03:31:36;;;;;;;12.82;5.00;;;;;;;;;;6269991;28;20123;-80
2021/11/22 03:34:38;;;;;;;14.32;5.95;;;;;;;;;;6254048;28;20041;-81
2021/11/22 03:37:40;;;;;;;11.57;4.93;;;;;;;;;;6248578;28;20041;-81
2021/11/22 03:40:44;;;;;;;13.43;5.20;;;;;;;;;;6227539;28;20048;-81
2021/11/22 03:43:50;;;;;;;14.15;5.28;;;;;;;;;;6263535;28;20484;-80
2021/11/22 03:46:54;;;;;;;13.23;5.07;;;;;;;;;;6252049;28;20040;-81
2021/11/22 03:49:56;;;;;;;13.00;4.75;;;;;;;;;;6259955;28;20044;-81
2021/11/22 03:52:58;;;;;;;10.65;5.32;;;;;;;;;;6245654;28;20417;-79
2021/11/22 03:55:59;;;;;;;9.93;5.00;;;;;;;;;;6270065;28;20053;-81
2021/11/22 03:59:01;;;;;;;10.48;5.63;;;;;;;;;;6246283;28;20108;-80
2021/11/22 04:02:03;;;;;;;11.65;4.70;;;;;;;;;;6251010;28;20066;-80
2021/11/22 04:05:05;;;;;;;12.65;5.13;;;;;;;;;;6251981;28;20047;-80
2021/11/22 04:08:08;;;;;;;10.45;4.55;;;;;;;;;;6263129;28;20045;-81
2021/11/22 04:11:10;;;;;;;14.43;4.68;;;;;;;;;;6268340;28;20051;-81
2021/11/22 04:14:12;;;;;;;8.48;4.20;;;;;;;;;;6264432;28;20045;-80
2021/11/22 04:17:14;;;;;;;12.52;4.60;;;;;;;;;;6254435;28;20047;-78
2021/11/22 04:20:15;;;;;;;10.88;4.68;;;;;;;;;;6264549;28;20051;-79
2021/11/22 04:23:17;;;;;;;11.18;4.35;;;;;;;;;;6266468;28;20033;-80
2021/11/22 04:26:19;;;;;;;10.38;4.50;;;;;;;;;;6267511;28;20699;-80
2021/11/22 04:29:21;;;;;;;11.63;4.32;;;;;;;;;;6249062;28;20059;-79
2021/11/22 04:32:22;;;;;;;15.13;4.85;;;;;;;;;;6249562;28;20055;-79
2021/11/22 04:35:24;;;;;;;10.93;4.30;;;;;;;;;;6250318;28;20037;-81
2021/11/22 04:38:26;;;;;;;12.30;4.55;;;;;;;;;;6247784;28;20132;-80
2021/11/22 04:41:27;;;;;;;11.10;4.28;;;;;;;;;;6247037;28;20045;-80
2021/11/22 04:44:29;;;;;;;11.65;5.35;;;;;;;;;;6260076;28;20049;-80
2021/11/22 04:47:32;;;;;;;12.18;5.15;;;;;;;;;;6260839;28;20136;-81
2021/11/22 04:50:35;;;;;;;9.25;4.43;;;;;;;;;;6250327;28;20051;-80
2021/11/22 04:53:37;;;;;;;10.02;4.38;;;;;;;;;;6266546;28;20044;-81
2021/11/22 04:56:38;;;;;;;10.90;4.32;;;;;;;;;;6263959;28;20395;-81
2021/11/22 04:59:41;;;;;;;8.57;3.97;;;;;;;;;;6250829;28;20049;-80
2021/11/22 05:02:45;;;;;;;13.35;4.97;;;;;;;;;;6267242;28;20045;-81
2021/11/22 05:05:48;;;;;;;9.55;4.20;;;;;;;;;;6246868;28;20045;-81
2021/11/22 05:08:49;;;;;;;10.85;4.15;;;;;;;;;;6233782;28;20057;-81
2021/11/22 05:11:51;;;;;;;7.45;4.15;;;;;;;;;;6247602;28;20033;-80
2021/11/22 05:14:52;;;;;;;13.13;5.45;;;;;;;;;;6266209;28;20684;-80
2021/11/22 05:17:54;;;;;;;10.00;4.80;;;;;;;;;;6249517;28;20067;-80
2021/11/22 05:20:56;;;;;;;15.25;5.40;;;;;;;;;;6248552;28;20059;-78
2021/11/22 05:23:59;;;;;;;11.10;4.70;;;;;;;;;;6244954;28;20051;-80
2021/11/22 05:27:03;;;;;;;9.95;4.55;;;;;;;;;;6265871;28;20105;-81
2021/11/22 05:30:06;;;;;;;10.25;4.07;;;;;;;;;;6266295;28;20045;-80
2021/11/22 05:33:07;;;;;;;11.30;3.67;;;;;;;;;;6250308;28;20521;-81
2021/11/22 05:36:09;;;;;;;10.98;4.30;;;;;;;;;;6265051;28;20045;-80
2021/11/22 05:39:12;;;;;;;10.65;4.28;;;;;;;;;;6248136;28;20041;-80
2021/11/22 05:42:14;;;;;;;12.38;4.55;;;;;;;;;;6244049;28;20044;-80
2021/11/22 05:45:17;;;;;;;9.20;3.90;;;;;;;;;;6262951;28;20045;-80
2021/11/22 05:48:19;;;;;;;11.13;3.88;;;;;;;;;;6277934;28;20568;-79
2021/11/22 05:51:21;;;;;;;12.63;4.07;;;;;;;;;;6269297;28;20049;-79
2021/11/22 05:54:24;;;;;;;12.27;4.20;;;;;;;;;;6263512;28;20051;-79
2021/11/22 05:57:26;;;;;;;12.98;4.22;;;;;;;;;;6261610;28;20543;-78
2021/11/22 06:00:28;;;;;;;11.23;3.85;;;;;;;;;;6232122;28;20505;-79
2021/11/22 06:03:30;;;;;;;12.63;4.15;;;;;;;;;;6239385;28;20071;-80
2021/11/22 06:06:32;;;;;;;8.98;4.18;;;;;;;;;;6233977;28;20525;-77
2021/11/22 06:09:35;;;;;;;8.63;3.83;;;;;;;;;;6241142;28;20041;-80
2021/11/22 06:12:36;;;;;;;12.52;4.45;;;;;;;;;;6237911;28;20128;-78
2021/11/22 06:15:39;;;;;;;7.57;3.80;;;;;;;;;;6240997;28;20033;-80
2021/11/22 06:18:41;;;;;;;7.15;3.47;;;;;;;;;;6240523;28;20120;-79
2021/11/22 06:21:43;;;;;;;10.70;4.13;;;;;;;;;;6237649;28;20060;-79
2021/11/22 06:24:45;;;;;;;11.15;4.22;;;;;;;;;;6239281;28;20509;-80
2021/11/22 06:27:46;;;;;;;9.88;4.28;;;;;;;;;;6262698;28;20047;-79
2021/11/22 06:30:48;;;;;;;10.38;4.07;;;;;;;;;;6265280;28;20045;-80
2021/11/22 06:33:50;;;;;;;9.27;3.47;;;;;;;;;;6263184;28;20041;-78
2021/11/22 06:36:51;;;;;;;13.05;4.07;;;;;;;;;;6245702;28;20041;-80
2021/11/22 06:39:54;;;;;;;10.93;4.40;;;;;;;;;;6246584;28;20675;-81
2021/11/22 06:42:56;;;;;;;12.68;4.10;;;;;;;;;;6263607;28;20265;-81
2021/11/22 06:45:58;;;;;;;13.07;4.35;;;;;;;;;;6243749;28;20053;-81
2021/11/22 06:49:01;;;;;;;12.75;4.40;;;;;;;;;;6247400;28;20052;-80
2021/11/22 06:52:03;;;;;;;9.82;4.20;;;;;;;;;;6229539;28;20041;-81
2021/11/22 06:55:05;;;;;;;11.75;4.75;;;;;;;;;;6264407;28;20037;-80
2021/11/22 06:58:07;;;;;;;8.67;4.00;;;;;;;;;;6244514;28;20045;-80
2021/11/22 07:01:08;;;;;;;13.80;4.72;;;;;;;;;;6245984;28;20053;-80
2021/11/22 07:04:10;;;;;;;10.20;4.35;;;;;;;;;;6272010;28;20131;-79
2021/11/22 07:07:14;;;;;;;12.30;4.43;;;;;;;;;;6267966;28;20494;-79
2021/11/22 07:10:17;;;;;;;10.48;4.60;;;;;;;;;;6269641;28;20053;-80
2021/11/22 07:13:19;;;;;;;14.70;4.75;;;;;;;;;;6266650;28;20053;-79
2021/11/22 07:16:21;;;;;;;10.90;4.03;;;;;;;;;;6274457;28;20049;-78
2021/11/22 07:19:27;;;;;;;11.52;4.63;;;;;;;;;;6266961;28;20081;-79
2021/11/22 07:22:28;;;;;;;13.52;5.15;;;;;;;;;;6261822;28;20043;-78
2021/11/22 07:25:30;;;;;;;12.70;4.70;;;;;;;;;;6266294;28;20037;-78
2021/11/22 07:28:31;;;;;;;12.38;4.45;;;;;;;;;;6265778;28;20055;-78
2021/11/22 07:31:33;;;;;;;13.77;6.07;;;;;;;;;;6265469;28;20041;-79
2021/11/22 07:34:35;;;;;;;13.15;5.57;;;;;;;;;;6266683;28;20037;-79
2021/11/22 07:37:37;;;;;;;14.55;6.07;;;;;;;;;;6243824;28;20179;-78
2021/11/22 07:40:39;;;;;;;7.90;4.85;;;;;;;;;;6235138;28;20045;-80
2021/11/22 07:43:40;;;;;;;11.10;5.10;;;;;;;;;;6250411;28;20045;-78
2021/11/22 07:46:42;;;;;;;12.13;5.25;;;;;;;;;;6267184;28;20049;-81
2021/11/22 07:49:44;;;;;;;10.80;5.10;;;;;;;;;;6250470;28;20041;-79
2021/11/22 07:52:46;;;;;;;17.13;8.13;;;;;;;;;;6249687;28;20049;-82
2021/11/22 07:55:48;;;;;;;9.20;3.67;;;;;;;;;;6268564;28;20049;-81
2021/11/22 07:58:49;;;;;;;7.05;2.88;;;;;;;;;;6267145;28;20040;-81
2021/11/22 08:01:51;;;;;;;7.78;4.45;;;;;;;;;;6242909;28;20045;-82
2021/11/22 08:04:53;;;;;;;18.13;8.85;;;;;;;;;;6247348;28;20552;-79
2021/11/22 08:07:55;;;;;;;10.05;4.43;;;;;;;;;;6245693;28;20406;-79
2021/11/22 08:11:47;;;;;;;4.72;2.78;;;;;;;;;;6240361;28;20041;-78
2021/11/22 08:14:22;;;;;;;5.57;3.15;;;;;;;;;;6258149;28;20039;-78
2021/11/22 08:17:39;;;;;;;4.07;2.70;;;;;;;;;;6262254;28;20045;-78
2021/11/22 08:20:41;;;;;;;4.65;2.60;;;;;;;;;;6260946;28;20036;-79
2021/11/22 08:23:42;;;;;;;4.75;1.90;;;;;;;;;;6265671;28;20037;-78
2021/11/22 08:26:44;;;;;;;2.95;2.03;;;;;;;;;;6268343;28;20163;-81
2021/11/22 08:29:47;;;;;;;13.70;7.10;;;;;;;;;;6248387;28;20083;-79
2021/11/22 08:32:51;;;;;;;2.65;2.03;;;;;;;;;;6267009;28;20108;-80
2021/11/22 08:35:53;;;;;;;13.38;5.15;;;;;;;;;;6265411;28;20501;-80
2021/11/22 08:38:54;;;;;;;3.45;1.55;;;;;;;;;;6263255;28;20055;-79
2021/11/22 08:41:56;;;;;;;5.85;2.65;;;;;;;;;;6246369;28;20136;-78
2021/11/22 08:45:00;;;;;;;2.85;1.33;;;;;;;;;;6233273;28;20065;-78
2021/11/22 08:48:02;;;;;;;2.90;1.90;;;;;;;;;;6247517;28;20072;-79
2021/11/22 08:51:04;;;;;;;7.65;3.13;;;;;;;;;;6250811;28;20504;-79
2021/11/22 08:54:06;;;;;;;3.70;1.85;;;;;;;;;;6229898;28;20565;-79
2021/11/22 08:57:09;;;;;;;3.17;2.15;;;;;;;;;;6224091;28;20049;-80
2021/11/22 09:00:18;;;;;;;2.97;1.80;;;;;;;;;;6223751;28;20050;-80
2021/11/22 09:03:20;;;;;;;4.00;1.88;;;;;;;;;;6239392;28;20041;-81
2021/11/22 09:06:22;;;;;;;10.60;4.22;;;;;;;;;;6237700;28;20041;-80
2021/11/22 09:09:24;;;;;;;3.95;1.83;;;;;;;;;;6252335;28;20049;-79
2021/11/22 09:12:25;;;;;;;8.63;4.63;;;;;;;;;;6246245;28;20049;-81
2021/11/22 09:15:27;;;;;;;10.60;5.78;;;;;;;;;;6263400;28;20797;-81
2021/11/22 09:18:29;;;;;;;1.30;1.20;;;;;;;;;;6265092;28;20497;-80
2021/11/22 09:21:31;;;;;;;2.25;1.70;;;;;;;;;;6261325;28;20049;-80
2021/11/22 09:24:33;;;;;;;1.95;1.50;;;;;;;;;;6262228;28;20187;-80
2021/11/22 09:27:35;;;;;;;2.15;1.67;;;;;;;;;;6262204;28;20498;-79
2021/11/22 09:30:37;;;;;;;2.17;1.65;;;;;;;;;;6244335;28;20041;-80
2021/11/22 09:33:39;;;;;;;2.00;1.50;;;;;;;;;;6263733;28;20067;-81
2021/11/22 09:36:40;;;;;;;1.60;1.27;;;;;;;;;;6242371;28;20044;-81
2021/11/22 09:39:43;;;;;;;1.38;0.98;;;;;;;;;;6264364;28;20037;-81
2021/11/22 09:42:45;;;;;;;1.55;1.15;;;;;;;;;;6261258;28;20044;-81
2021/11/22 09:45:47;;;;;;;1.92;1.33;;;;;;;;;;6266877;28;20044;-81
2021/11/22 09:48:48;;;;;;;1.58;1.20;;;;;;;;;;6264475;28;20112;-81
2021/11/22 09:51:51;;;;;;;2.78;1.63;;;;;;;;;;6251739;28;20037;-79
2021/11/22 09:54:53;;;;;;;2.23;1.67;;;;;;;;;;6245513;28;20049;-80
2021/11/22 09:57:54;;;;;;;3.22;1.80;;;;;;;;;;6219525;28;20052;-81
2021/11/22 10:01:03;;;;;;;2.53;1.65;;;;;;;;;;6236856;28;20056;-80
2021/11/22 10:04:08;;;;;;;2.00;1.50;;;;;;;;;;6241234;28;20045;-82
2021/11/22 10:07:10;;;;;;;1.75;1.33;;;;;;;;;;6235242;28;20054;-80
2021/11/22 10:10:13;;;;;;;2.55;1.77;;;;;;;;;;6238958;28;20034;-80
2021/11/22 10:13:36;;;;;;;1.20;1.05;;;;;;;;;;6220221;28;20081;-79
2021/11/22 10:16:38;;;;;;;1.30;1.20;;;;;;;;;;6229240;28;20059;-79
2021/11/22 10:19:39;;;;;;;2.30;1.50;;;;;;;;;;6244759;28;20041;-81
2021/11/22 10:23:07;;;;;;;1.73;1.45;;;;;;;;;;6240733;28;20102;-80
2021/11/22 10:26:11;;;;;;;2.63;2.03;;;;;;;;;;6250578;28;20124;-80
2021/11/22 10:29:41;;;;;;;2.95;1.90;;;;;;;;;;6252469;28;20065;-81
2021/11/22 10:32:43;;;;;;;2.58;1.40;;;;;;;;;;6216256;28;20049;-80
2021/11/22 10:35:46;;;;;;;5.28;2.17;;;;;;;;;;6252234;28;20132;-80
2021/11/22 10:38:59;;;;;;;4.80;1.80;;;;;;;;;;6254308;28;20261;-80
2021/11/22 10:42:02;;;;;;;1.83;1.50;;;;;;;;;;6269293;28;20527;-81
2021/11/22 10:45:04;;;;;;;10.87;6.07;;;;;;;;;;6254293;28;20048;-81
2021/11/22 10:48:11;;;;;;;4.30;2.28;;;;;;;;;;6239784;28;20051;-82
2021/11/22 10:51:17;;;;;;;1.27;0.90;;;;;;;;;;6234102;28;20041;-81
2021/11/22 10:54:23;;;;;;;1.20;0.80;;;;;;;;;;6263105;28;20484;-81
2021/11/22 10:57:44;;;;;;;1.77;1.17;;;;;;;;;;6262940;28;20562;-80
2021/11/22 11:00:46;;;;;;;13.40;6.55;;;;;;;;;;6273321;28;20044;-81
2021/11/22 11:04:18;;;;;;;36.38;14.15;;;;;;;;;;6253302;28;20460;-80
2021/11/22 11:07:20;;;;;;;1.58;1.27;;;;;;;;;;6267012;28;20047;-80
2021/11/22 11:10:23;;;;;;;10.52;4.50;;;;;;;;;;6267451;28;20044;-80
2021/11/22 11:13:55;;;;;;;3.30;1.90;;;;;;;;;;6233905;28;20041;-79
2021/11/22 11:17:18;;;;;;;1.98;1.00;;;;;;;;;;6247982;28;20049;-82
2021/11/22 11:20:22;;;;;;;3.30;1.55;;;;;;;;;;6250816;28;20036;-81
2021/11/22 11:23:26;;;;;;;30.90;17.30;;;;;;;;;;6273237;28;20094;-81
2021/11/22 11:26:28;;;;;;;8.73;4.53;;;;;;;;;;6253195;28;20052;-81
2021/11/22 11:29:30;;;;;;;16.40;8.23;;;;;;;;;;6246954;28;20047;-81
2021/11/22 11:32:32;;;;;;;6.07;3.33;;;;;;;;;;6248376;28;20041;-80
2021/11/22 11:35:34;;;;;;;1.25;1.15;;;;;;;;;;6259635;28;20045;-82
2021/11/22 11:38:41;;;;;;;2.03;1.25;;;;;;;;;;6230786;28;20060;-80
2021/11/22 11:42:07;;;;;;;1.58;0.80;;;;;;;;;;6239855;28;20049;-81
2021/11/22 11:45:27;;;;;;;2.08;1.30;;;;;;;;;;6247709;28;20049;-81
2021/11/22 11:48:58;;;;;;;1.95;1.20;;;;;;;;;;6254671;28;20051;-81
2021/11/22 11:52:22;;;;;;;6.30;2.85;;;;;;;;;;6198261;28;20126;-80
2021/11/22 11:55:24;;;;;;;1.95;1.40;;;;;;;;;;6250303;28;20102;-81
2021/11/22 11:58:27;;;;;;;2.95;1.67;;;;;;;;;;6268368;28;20064;-80
2021/11/22 12:01:28;;;;;;;3.10;1.67;;;;;;;;;;6241898;28;20184;-80
2021/11/22 12:04:46;;;;;;;1.08;0.80;;;;;;;;;;6226821;28;20053;-82
2021/11/22 12:07:50;;;;;;;2.85;1.35;;;;;;;;;;6243112;28;20088;-80
2021/11/22 12:10:55;;;;;;;5.88;2.10;;;;;;;;;;6270851;28;20679;-78
2021/11/22 12:13:57;;;;;;;0.80;0.80;;;;;;;;;;6270449;28;20497;-79
2021/11/22 12:16:59;;;;;;;1.38;0.55;;;;;;;;;;6255218;28;20112;-78
2021/11/22 12:20:30;;;;;;;6.90;2.22;;;;;;;;;;6273335;28;20045;-78
2021/11/22 12:23:45;;;;;;;1.67;1.00;;;;;;;;;;6256290;28;20048;-78
2021/11/22 12:26:47;;;;;;;7.47;2.85;;;;;;;;;;6273641;28;20091;-79
2021/11/22 12:29:48;;;;;;;1.95;1.10;;;;;;;;;;6255636;28;20126;-78
2021/11/22 12:32:50;;;;;;;1.15;0.98;;;;;;;;;;6274147;28;20403;-79
2021/11/22 12:36:10;;;;;;;0.93;0.80;;;;;;;;;;6271545;28;20045;-79
2021/11/22 12:39:19;;;;;;;1.00;0.80;;;;;;;;;;6273052;28;20091;-79
2021/11/22 12:42:25;;;;;;;5.93;2.97;;;;;;;;;;6255751;28;20051;-79
2021/11/22 12:45:26;;;;;;;1.35;1.00;;;;;;;;;;6257562;28;20045;-79
2021/11/22 12:48:37;;;;;;;2.45;1.10;;;;;;;;;;6276226;28;20060;-79
2021/11/22 12:51:49;;;;;;;2.03;1.10;;;;;;;;;;6271294;28;20049;-79
2021/11/22 12:54:57;;;;;;;4.67;1.20;;;;;;;;;;6272497;28;20104;-81
2021/11/22 12:58:12;;;;;;;1.67;1.00;;;;;;;;;;6248164;28;20055;-80
2021/11/22 13:01:25;;;;;;;1.25;1.10;;;;;;;;;;6271666;28;20101;-81
2021/11/22 13:04:42;;;;;;;6.88;1.75;;;;;;;;;;6272395;28;20060;-79
2021/11/22 13:07:47;;;;;;;2.22;1.00;;;;;;;;;;6268272;28;20063;-81
2021/11/22 13:11:00;;;;;;;1.40;0.85;;;;;;;;;;6254808;28;20037;-79
2021/11/22 13:14:07;;;;;;;1.60;0.77;;;;;;;;;;6268549;28;20045;-82
2021/11/22 13:17:09;;;;;;;1.35;1.20;;;;;;;;;;6255506;28;20064;-83
2021/11/22 13:20:13;;;;;;;3.13;1.08;;;;;;;;;;6270624;28;20052;-81
2021/11/22 13:23:26;;;;;;;1.27;1.02;;;;;;;;;;6250920;28;20052;-82
2021/11/22 13:26:29;;;;;;;2.00;1.23;;;;;;;;;;6253677;28;20083;-80
2021/11/22 13:29:31;;;;;;;3.13;1.25;;;;;;;;;;6248046;28;20047;-80
2021/11/22 13:32:33;;;;;;;1.50;0.90;;;;;;;;;;6274285;28;20121;-79
2021/11/22 13:35:36;;;;;;;2.45;1.10;;;;;;;;;;6248316;28;20045;-79
2021/11/22 13:38:41;;;;;;;0.70;0.70;;;;;;;;;;6269393;28;20043;-80
2021/11/22 13:42:12;;;;;;;1.77;0.70;;;;;;;;;;6241906;28;20046;-78
2021/11/22 13:45:14;;;;;;;1.10;0.88;;;;;;;;;;6234910;28;20042;-80
2021/11/22 13:48:15;;;;;;;2.55;1.08;;;;;;;;;;6262537;28;20047;-79
2021/11/22 13:51:33;;;;;;;1.63;0.82;;;;;;;;;;6245552;28;20077;-80
2021/11/22 13:54:35;;;;;;;0.90;0.65;;;;;;;;;;6236315;28;20061;-81
2021/11/22 13:57:36;;;;;;;4.30;2.00;;;;;;;;;;6232630;28;20052;-79
2021/11/22 14:00:40;;;;;;;1.60;0.80;;;;;;;;;;6261338;28;20109;-80
2021/11/22 14:03:42;;;;;;;2.60;1.13;;;;;;;;;;6242081;28;20052;-80
2021/11/22 14:06:44;;;;;;;1.83;0.85;;;;;;;;;;6253557;28;20080;-81
2021/11/22 14:09:49;;;;;;;1.63;0.90;;;;;;;;;;6234978;28;20109;-80
2021/11/22 14:12:51;;;;;;;2.75;1.40;;;;;;;;;;6229506;28;20042;-80
2021/11/22 14:15:52;;;;;;;5.50;1.35;;;;;;;;;;6234850;28;20042;-79
2021/11/22 14:18:55;;;;;;;2.53;0.90;;;;;;;;;;6257013;28;20494;-81
2021/11/22 14:22:08;;;;;;;1.88;0.80;;;;;;;;;;6224720;28;20690;-79
2021/11/22 14:25:27;;;;;;;1.35;0.70;;;;;;;;;;6236790;28;20154;-82
2021/11/22 14:28:36;;;;;;;1.20;0.70;;;;;;;;;;6242132;28;20046;-81
2021/11/22 14:31:43;;;;;;;1.92;0.70;;;;;;;;;;6241097;28;20051;-80
2021/11/22 14:34:48;;;;;;;1.08;1.00;;;;;;;;;;6234359;28;20049;-80
2021/11/22 14:38:11;;;;;;;1.13;0.70;;;;;;;;;;6238383;28;20118;-81
2021/11/22 14:41:12;;;;;;;1.55;0.88;;;;;;;;;;6238884;28;20188;-77
2021/11/22 14:44:15;;;;;;;3.53;2.42;;;;;;;;;;6238450;28;20738;-79
2021/11/22 14:47:35;;;;;;;5.43;2.38;;;;;;;;;;6228909;28;20054;-80
2021/11/22 14:51:12;;;;;;;4.75;2.08;;;;;;;;;;6219488;28;20046;-81
2021/11/22 14:54:21;;;;;;;1.17;0.70;;;;;;;;;;6224168;28;20096;-78
2021/11/22 14:57:25;;;;;;;4.72;2.13;;;;;;;;;;6217252;28;20049;-78
2021/11/22 15:00:32;;;;;;;1.75;0.90;;;;;;;;;;6225858;28;20053;-78
2021/11/22 15:03:35;;;;;;;1.23;1.00;;;;;;;;;;6228726;28;20045;-79
2021/11/22 15:06:36;;;;;;;2.47;1.65;;;;;;;;;;6230225;28;20046;-77
2021/11/22 15:09:47;;;;;;;4.75;1.70;;;;;;;;;;6235715;28;20057;-78
2021/11/22 15:12:49;;;;;;;1.92;1.73;;;;;;;;;;6223825;28;20045;-76
2021/11/22 15:15:50;;;;;;;2.78;1.55;;;;;;;;;;6224461;28;20091;-78
2021/11/22 15:18:52;;;;;;;2.85;1.40;;;;;;;;;;6223467;28;20041;-77
2021/11/22 15:21:54;;;;;;;2.63;1.25;;;;;;;;;;6225430;28;20045;-78
2021/11/22 15:24:57;;;;;;;3.22;2.40;;;;;;;;;;6224928;28;20427;-80
2021/11/22 15:28:05;;;;;;;1.10;0.85;;;;;;;;;;6225410;28;20059;-80
2021/11/22 15:31:07;;;;;;;1.63;0.70;;;;;;;;;;6233348;28;20515;-80
2021/11/22 15:34:10;;;;;;;4.00;0.80;;;;;;;;;;6217393;28;20054;-80
2021/11/22 15:37:11;;;;;;;6.30;3.90;;;;;;;;;;6230309;28;20107;-79
2021/11/22 15:40:15;;;;;;;12.90;8.05;;;;;;;;;;6247670;28;20045;-80
2021/11/22 15:43:18;;;;;;;6.78;3.70;;;;;;;;;;6231729;28;20073;-78
2021/11/22 15:46:35;;;;;;;11.18;4.53;;;;;;;;;;6235346;28;20037;-79
2021/11/22 15:49:37;;;;;;;11.77;7.93;;;;;;;;;;6244283;28;20047;-80
2021/11/22 15:52:39;;;;;;;5.82;3.60;;;;;;;;;;6243710;28;20041;-79
2021/11/22 15:55:40;;;;;;;16.48;6.95;;;;;;;;;;6261062;28;20052;-78
2021/11/22 15:58:42;;;;;;;91.28;31.42;;;;;;;;;;6247433;28;20053;-79
2021/11/22 16:01:46;;;;;;;113.32;39.78;;;;;;;;;;6263558;28;20647;-78
2021/11/22 16:04:47;;;;;;;8.02;4.05;;;;;;;;;;6247768;28;20064;-80
2021/11/22 16:07:52;;;;;;;75.57;43.88;;;;;;;;;;6261055;28;20045;-79
2021/11/22 16:10:53;;;;;;;16.75;8.10;;;;;;;;;;6247996;28;20044;-78
2021/11/22 16:13:55;;;;;;;17.77;7.65;;;;;;;;;;6263384;28;20052;-78
2021/11/22 16:16:58;;;;;;;54.10;15.77;;;;;;;;;;6265199;28;20053;-80
2021/11/22 16:20:00;;;;;;;13.57;6.97;;;;;;;;;;6234717;28;20057;-79
2021/11/22 16:23:01;;;;;;;20.20;12.68;;;;;;;;;;6252630;28;20433;-79
2021/11/22 16:26:04;;;;;;;39.55;23.85;;;;;;;;;;6265318;28;20124;-81
2021/11/22 16:29:07;;;;;;;25.93;16.40;;;;;;;;;;6254290;28;20040;-81
2021/11/22 16:32:11;;;;;;;28.08;17.70;;;;;;;;;;6247368;28;20037;-80
2021/11/22 16:35:12;;;;;;;6.70;3.20;;;;;;;;;;6265383;28;20041;-79
2021/11/22 16:38:14;;;;;;;35.35;17.98;;;;;;;;;;6262658;28;20049;-80
2021/11/22 16:41:16;;;;;;;18.00;9.48;;;;;;;;;;6225862;28;20055;-79
2021/11/22 16:44:22;;;;;;;55.47;28.10;;;;;;;;;;6205373;28;20049;-80
2021/11/22 16:47:23;;;;;;;41.63;23.15;;;;;;;;;;6261378;28;20086;-78
2021/11/22 16:50:26;;;;;;;26.35;14.07;;;;;;;;;;6279914;28;20986;-76
2021/11/22 16:53:27;;;;;;;13.55;7.72;;;;;;;;;;6259552;28;20128;-77
2021/11/22 16:56:29;;;;;;;27.13;7.00;;;;;;;;;;6258986;28;20059;-78
2021/11/22 16:59:32;;;;;;;15.25;6.97;;;;;;;;;;6260643;28;20540;-76
2021/11/22 17:02:33;;;;;;;64.72;21.45;;;;;;;;;;6257965;28;20037;-79
2021/11/22 17:05:35;;;;;;;52.30;17.98;;;;;;;;;;6253502;28;20057;-77
2021/11/22 17:08:37;;;;;;;57.00;20.05;;;;;;;;;;6258443;28;20051;-77
2021/11/22 17:11:38;;;;;;;41.75;16.42;;;;;;;;;;6256912;28;20059;-78
2021/11/22 17:14:40;;;;;;;24.25;10.15;;;;;;;;;;6258314;28;20045;-79
2021/11/22 17:17:42;;;;;;;24.95;12.18;;;;;;;;;;6259197;28;20044;-79
2021/11/22 17:20:45;;;;;;;19.63;9.10;;;;;;;;;;6254508;28;20056;-78
2021/11/22 17:23:47;;;;;;;22.90;10.70;;;;;;;;;;6240428;28;20048;-79
2021/11/22 17:26:50;;;;;;;15.85;7.78;;;;;;;;;;6256364;28;20059;-78
2021/11/22 17:30:06;;;;;;;16.23;8.18;;;;;;;;;;6239860;28;20099;-77
2021/11/22 17:33:08;;;;;;;14.60;7.38;;;;;;;;;;6239957;28;20056;-78
2021/11/22 17:36:09;;;;;;;13.02;6.43;;;;;;;;;;6249544;28;20425;-78
2021/11/22 17:39:11;;;;;;;11.82;6.43;;;;;;;;;;6257544;28;20049;-79
2021/11/22 17:42:12;;;;;;;16.05;9.05;;;;;;;;;;6254946;28;20782;-77
2021/11/22 17:45:21;;;;;;;13.77;8.50;;;;;;;;;;6256247;28;20143;-79
2021/11/22 17:48:26;;;;;;;23.40;9.57;;;;;;;;;;6275537;28;20060;-77
2021/11/22 17:51:28;;;;;;;14.02;7.07;;;;;;;;;;6252997;28;20522;-78
2021/11/22 17:54:29;;;;;;;12.70;7.40;;;;;;;;;;6257838;28;20051;-79
2021/11/22 17:57:31;;;;;;;15.57;7.68;;;;;;;;;;6247552;28;20047;-77
2021/11/22 18:00:33;;;;;;;17.17;8.13;;;;;;;;;;6265290;28;20056;-78
2021/11/22 18:03:35;;;;;;;21.13;10.57;;;;;;;;;;6248265;28;20051;-79
2021/11/22 18:06:36;;;;;;;21.88;11.57;;;;;;;;;;6266076;28;20048;-78
2021/11/22 18:09:38;;;;;;;18.20;9.07;;;;;;;;;;6264535;28;20132;-78
2021/11/22 18:12:44;;;;;;;18.67;9.57;;;;;;;;;;6264973;28;20053;-78
2021/11/22 18:15:46;;;;;;;16.10;8.30;;;;;;;;;;6244736;28;20056;-79